Flight Track Log - Related Links

Times and Time Zones

All times are in EDT time to prevent confusion due to time zone crossing. See the JBU464 flight status page for this flight to view local times or setup timezone preferences in your user account.

Time Position Orientation Groundspeed Altitude Reporting Facility
EDT Latitude Longitude Course Direction KTS MPH feet Rate Location/Type
Sun 07:19:46 AM 26.6469 -81.6558 344° North 243 280 6,400  Level Miami Center
Sun 07:20:00 AM 26.8843 -81.7333 North  Level FlightAware Approximate
Sun 07:20:46 AM 26.7214 -81.6728 349° North 236 272 9,700  Level Miami Center
Sun 07:21:00 AM 27.0017 -81.7333 North  Level FlightAware Approximate
Sun 07:21:46 AM 26.8083 -81.6950 347° North 275 316 11,600  Level Miami Center
Sun 07:22:00 AM 27.1134 -81.7711 343° North  Level FlightAware Approximate
Sun 07:22:46 AM 26.9036 -81.7153 349° North 315 362 14,100  Level Miami Center
Sun 07:23:00 AM 27.2260 -81.8087 343° North  Level FlightAware Approximate
Sun 07:23:46 AM 27.0061 -81.7125 North 343 395 16,200  Level Miami Center
Sun 07:24:00 AM 27.3371 -81.8513 344° North  Level FlightAware Approximate
Sun 07:24:46 AM 27.1233 -81.7036 North 375 432 18,400  Level Miami Center
Sun 07:25:00 AM 27.4497 -81.8888 344° North  Level FlightAware Approximate
Sun 07:25:46 AM 27.2239 -81.6961 North 393 452 20,300  Level Miami Center
Sun 07:26:46 AM 27.3428 -81.6917 North 411 473 21,300 1,100 Climbing Miami Center
Sun 07:27:46 AM 27.4831 -81.6811 North 441 507 22,500 1,200 Climbing Miami Center
Sun 07:28:46 AM 27.6106 -81.6747 North 457 526 23,700 1,150 Climbing Miami Center
Sun 07:29:46 AM 27.7422 -81.6686 North 463 533 24,800 1,250 Climbing Miami Center
Sun 07:30:46 AM 27.8739 -81.6603 North 468 539 26,200 1,200 Climbing Miami Center
Sun 07:31:46 AM 28.0058 -81.6517 North 468 539 27,200 1,200 Climbing Miami Center
Sun 07:32:46 AM 28.1375 -81.6453 North 468 539 28,600 1,400 Climbing Miami Center
Sun 07:33:46 AM 28.2650 -81.6392 North 468 539 30,000 1,300 Climbing Miami Center
Sun 07:34:46 AM 28.3925 -81.6303 North 461 531 31,200 1,200 Climbing Miami Center
Sun 07:35:46 AM 28.5219 -81.6242 North 461 531 32,400 1,466 Climbing Miami Center
Sun 07:36:57 AM 28.6694 -81.6125 North 453 521 34,400 1,511 Climbing Jacksonville Center
Sun 07:37:57 AM 28.7883 -81.6086 North 436 502 35,700 1,150 Climbing Jacksonville Center
Sun 07:38:57 AM 28.9072 -81.6022 North 429 494 36,700 650 Climbing Jacksonville Center
Sun 07:39:57 AM 29.0239 -81.5700 14° North 424 488 37,000 150 Climbing Jacksonville Center
Sun 07:40:57 AM 29.1381 -81.5161 22° Northeast 424 488 37,000  Level Jacksonville Center
Sun 07:41:57 AM 29.2522 -81.4644 22° Northeast 431 496 37,000  Level Jacksonville Center
Sun 07:42:57 AM 29.3686 -81.4103 22° Northeast 437 503 37,000  Level Jacksonville Center
Sun 07:43:57 AM 29.4808 -81.3611 21° North 442 509 37,000  Level Jacksonville Center
Sun 07:44:57 AM 29.5989 -81.3042 23° Northeast 437 503 37,000  Level Jacksonville Center
Sun 07:45:57 AM 29.7111 -81.2497 23° Northeast 437 503 37,000  Level Jacksonville Center
Sun 07:46:57 AM 29.8272 -81.1975 21° North 437 503 37,000  Level Jacksonville Center
Sun 07:47:57 AM 29.9414 -81.1428 23° Northeast 437 503 37,000  Level Jacksonville Center
Sun 07:48:57 AM 30.0575 -81.0878 22° Northeast 437 503 37,000  Level Jacksonville Center
Sun 07:49:57 AM 30.1717 -81.0353 22° Northeast 437 503 37,000  Level Jacksonville Center
Sun 07:50:57 AM 30.2856 -80.9803 23° Northeast 437 503 37,000  Level Jacksonville Center
Sun 07:51:57 AM 30.3914 -80.9322 21° North 437 503 37,000  Level Jacksonville Center
Sun 07:52:57 AM 30.5053 -80.8769 23° Northeast 442 509 37,000  Level Jacksonville Center
Sun 07:53:57 AM 30.6214 -80.8239 21° North 442 509 37,000  Level Jacksonville Center
Sun 07:54:57 AM 30.7353 -80.7706 22° Northeast 442 509 37,000  Level Jacksonville Center
Sun 07:55:57 AM 30.8469 -80.7125 24° Northeast 437 503 37,000 -50 Level Jacksonville Center
Sun 07:56:57 AM 30.9653 -80.6614 20° North 437 503 36,900 -50 Descending Jacksonville Center
Sun 07:57:57 AM 31.0833 -80.6075 21° North 437 503 36,900 250 Level Jacksonville Center
Sun 07:58:57 AM 31.1931 -80.5539 23° Northeast 437 503 37,400 700 Climbing Jacksonville Center
Sun 07:59:57 AM 31.3044 -80.4953 24° Northeast 432 497 38,300 800 Climbing Jacksonville Center
Sun 08:00:57 AM 31.4289 -80.4383 21° North 432 497 39,000 350 Climbing Jacksonville Center
Sun 08:01:57 AM 31.5406 -80.3842 22° Northeast 432 497 39,000  Level Jacksonville Center
Sun 08:02:57 AM 31.6542 -80.3300 22° Northeast 432 497 39,000  Level Jacksonville Center
Sun 08:03:57 AM 31.7700 -80.2731 23° Northeast 432 497 39,000 -50 Level Jacksonville Center
Sun 08:04:57 AM 31.8836 -80.2158 23° Northeast 432 497 38,900  Descending Jacksonville Center
Sun 08:05:57 AM 31.9992 -80.1611 22° Northeast 451 519 39,000  Climbing Jacksonville Center
Sun 08:06:57 AM 32.1128 -80.1039 23° Northeast 445 512 38,900  Descending Jacksonville Center
Sun 08:07:57 AM 32.2264 -80.0489 22° Northeast 445 512 39,000  Climbing Jacksonville Center
Sun 08:08:57 AM 32.3400 -79.9936 22° Northeast 445 512 38,900  Descending Jacksonville Center
Sun 08:09:57 AM 32.4556 -79.9383 22° Northeast 445 512 39,000 50 Climbing Jacksonville Center
Sun 08:10:57 AM 32.5711 -79.8778 24° Northeast 445 512 39,000  Level Jacksonville Center
Sun 08:11:57 AM 32.6867 -79.8222 22° Northeast 445 512 39,000 -50 Level Jacksonville Center
Sun 08:12:57 AM 32.8000 -79.7664 22° Northeast 445 512 38,900  Descending Jacksonville Center
Sun 08:13:57 AM 32.9053 -79.7133 23° Northeast 450 518 39,000 50 Climbing Jacksonville Center
Sun 08:14:57 AM 33.0228 -79.6522 24° Northeast 450 518 39,000 -50 Level Jacksonville Center
Sun 08:15:57 AM 33.1381 -79.5933 23° Northeast 450 518 38,900 -50 Descending Jacksonville Center
Sun 08:16:57 AM 33.2533 -79.5369 22° Northeast 450 518 38,900  Level Jacksonville Center
Sun 08:17:57 AM 33.3708 -79.4778 23° Northeast 450 518 38,900  Level Jacksonville Center
Sun 08:18:57 AM 33.4839 -79.4211 23° Northeast 450 518 38,900  Level Jacksonville Center
Sun 08:19:57 AM 33.5992 -79.3617 23° Northeast 450 518 38,900 50 Level Jacksonville Center
Sun 08:20:57 AM 33.7144 -79.3022 23° Northeast 450 518 39,000 50 Climbing Jacksonville Center
Sun 08:21:57 AM 33.8275 -79.2475 22° Northeast 445 512 39,000 -50 Level Jacksonville Center
Sun 08:22:57 AM 33.9406 -79.1903 23° Northeast 445 512 38,900  Descending Jacksonville Center
Sun 08:25:07 AM 34.1989 -79.0594 23° Northeast 442 509 39,000 32 Climbing Washington Center
Sun 08:26:07 AM 34.3133 -78.9914 26° Northeast 442 509 39,000 -50 Level Washington Center
Sun 08:27:06 AM 34.4242 -78.9078 32° Northeast 450 518 38,900 -50 Descending Washington Center
Sun 08:28:06 AM 34.5117 -78.8433 31° Northeast 455 524 38,900 50 Level Washington Center
Sun 08:29:07 AM 34.6394 -78.7397 34° Northeast 455 524 39,000 49 Climbing Washington Center
Sun 08:30:08 AM 34.7503 -78.6556 32° Northeast 465 535 39,000  Level Washington Center
Sun 08:31:06 AM 34.8567 -78.5736 32° Northeast 459 528 39,000  Level Washington Center
Sun 08:32:06 AM 34.9586 -78.4964 32° Northeast 459 528 39,000  Level Washington Center
Sun 08:33:06 AM 35.0692 -78.4139 31° Northeast 464 534 39,000  Level Washington Center
Sun 08:34:07 AM 35.1756 -78.3286 33° Northeast 464 534 39,000  Level Washington Center
Sun 08:35:08 AM 35.2881 -78.2436 32° Northeast 464 534 39,000  Level Washington Center
Sun 08:36:07 AM 35.3961 -78.1578 33° Northeast 464 534 39,000  Level Washington Center
Sun 08:37:08 AM 35.5064 -78.0722 32° Northeast 464 534 39,000  Level Washington Center
Sun 08:38:06 AM 35.6147 -77.9911 31° Northeast 464 534 39,000  Level Washington Center
Sun 08:39:06 AM 35.7228 -77.9050 33° Northeast 464 534 39,000  Level Washington Center
Sun 08:40:08 AM 35.8328 -77.8183 33° Northeast 464 534 39,000  Level Washington Center
Sun 08:41:06 AM 35.9431 -77.7317 32° Northeast 464 534 39,000  Level Washington Center
Sun 08:42:08 AM 36.0489 -77.6394 35° Northeast 464 534 39,000  Level Washington Center
Sun 08:43:08 AM 36.1569 -77.5394 37° Northeast 469 540 39,000  Level Washington Center
Sun 08:44:06 AM 36.2672 -77.4314 38° Northeast 466 536 39,000  Level Washington Center
Sun 08:45:06 AM 36.3644 -77.3408 37° Northeast 472 543 39,000  Level Washington Center
Sun 08:46:06 AM 36.4703 -77.2450 36° Northeast 472 543 39,000  Level Washington Center
Sun 08:47:08 AM 36.5758 -77.1439 38° Northeast 467 537 39,000  Level Washington Center
Sun 08:48:06 AM 36.6836 -77.0422 37° Northeast 472 543 39,000  Level Washington Center
Sun 08:49:06 AM 36.7869 -76.9431 38° Northeast 472 543 39,000  Level Washington Center
Sun 08:50:07 AM 36.8964 -76.8489 35° Northeast 472 543 39,000  Level Washington Center
Sun 08:51:05 AM 36.9994 -76.7517 37° Northeast 472 543 39,000  Level Washington Center
Sun 08:52:06 AM 37.1047 -76.6569 36° Northeast 467 537 39,000  Level Washington Center
Sun 08:53:06 AM 37.2100 -76.5594 36° Northeast 467 537 39,000  Level Washington Center
Sun 08:54:06 AM 37.3169 -76.4642 35° Northeast 467 537 39,000  Level Washington Center
Sun 08:55:07 AM 37.4406 -76.3767 29° Northeast 462 532 39,000  Level Washington Center
Sun 08:56:08 AM 37.5497 -76.2886 33° Northeast 462 532 39,000  Level Washington Center
Sun 08:57:06 AM 37.6586 -76.2056 31° Northeast 457 526 39,000 -51 Level Washington Center
Sun 08:58:06 AM 37.7717 -76.1250 29° Northeast 457 526 38,900  Descending Washington Center
Sun 08:59:06 AM 37.8761 -76.0364 34° Northeast 457 526 39,000 50 Climbing Washington Center
Sun 09:00:07 AM 37.9850 -75.9500 32° Northeast 457 526 39,000  Level Washington Center
Sun 09:01:08 AM 38.0978 -75.8608 32° Northeast 462 532 39,000  Level Washington Center
Sun 09:02:08 AM 38.2083 -75.7742 32° Northeast 462 532 39,000  Level Washington Center
Sun 09:03:06 AM 38.2961 -75.7028 33° Northeast 462 532 39,000  Level Washington Center
Sun 09:04:08 AM 38.4256 -75.6075 30° Northeast 475 547 39,000  Level Washington Center
Sun 09:05:08 AM 38.5381 -75.5147 33° Northeast 480 552 39,000 -51 Level Washington Center
Sun 09:06:06 AM 38.6483 -75.4269 32° Northeast 480 552 38,900 -51 Descending Washington Center
Sun 09:07:06 AM 38.7586 -75.3386 32° Northeast 475 547 38,900  Level Washington Center
Sun 09:08:08 AM 38.8669 -75.2503 32° Northeast 475 547 38,900  Level Washington Center
Sun 09:09:08 AM 38.9772 -75.1592 33° Northeast 475 547 38,900 50 Level Washington Center
Sun 09:10:08 AM 39.0892 -75.0700 32° Northeast 475 547 39,000  Climbing Washington Center
Sun 09:11:08 AM 39.1972 -74.9728 35° Northeast 475 547 38,900  Descending Washington Center
Sun 09:12:08 AM 39.3072 -74.8889 31° Northeast 475 547 39,000 51 Climbing Washington Center
Sun 09:13:06 AM 39.4169 -74.7992 32° Northeast 475 547 39,000 -50 Level Washington Center
Sun 09:14:07 AM 39.5269 -74.7064 33° Northeast 475 547 38,900 -50 Descending Washington Center
Sun 09:15:06 AM 39.6469 -74.6053 33° Northeast 475 547 38,900 -400 Level Washington Center
Sun 09:16:07 AM 39.7567 -74.5144 32° Northeast 475 547 38,100 -774 Descending Washington Center
Sun 09:17:41 AM 39.9336 -74.3686 32° Northeast 502 578 36,900 -429 Descending New York Center
Sun 09:18:41 AM 40.0428 -74.2714 34° Northeast 491 565 37,000  Climbing New York Center
Sun 09:19:41 AM 40.1439 -74.1650 39° Northeast 479 551 36,900 -50 Descending New York Center
Sun 09:20:41 AM 40.2469 -74.0614 37° Northeast 466 536 36,900 -350 Level New York Center
Sun 09:21:41 AM 40.3500 -73.9547 38° Northeast 466 536 36,200 -1,500 Descending New York Center
Sun 09:22:41 AM 40.4569 -73.8533 36° Northeast 466 536 33,900 -2,429 Descending New York Center
Sun 09:24:24 AM 40.6242 -73.6869 37° Northeast 475 547 29,600 -2,429 Descending Boston Center
Sun 09:25:24 AM 40.7211 -73.5819 39° Northeast 468 539 27,300 -2,300 Descending Boston Center
Sun 09:26:24 AM 40.8158 -73.4822 39° Northeast 447 514 25,000 -1,650 Descending Boston Center
Sun 09:27:24 AM 40.9003 -73.3736 44° Northeast 429 494 24,000 -500 Descending Boston Center
Sun 09:28:24 AM 40.9844 -73.2539 47° Northeast 405 466 24,000  Level Boston Center
Sun 09:29:24 AM 41.0603 -73.1392 49° Northeast 405 466 24,000 -350 Level Boston Center
Sun 09:30:24 AM 41.1381 -73.0272 47° Northeast 405 466 23,300 -500 Descending Boston Center
Sun 09:31:24 AM 41.2114 -72.9119 50° Northeast 410 472 23,000 -150 Descending Boston Center
Sun 09:32:24 AM 41.2642 -72.7658 64° Northeast 415 478 23,000  Level Boston Center
Sun 09:33:24 AM 41.3125 -72.6253 65° Northeast 420 483 23,000  Level Boston Center
Sun 09:34:24 AM 41.3647 -72.4844 64° Northeast 420 483 23,000  Level Boston Center
Sun 09:35:24 AM 41.4147 -72.3433 65° Northeast 420 483 23,000  Level Boston Center
Sun 09:36:24 AM 41.4664 -72.2075 63° Northeast 414 476 23,000  Level Boston Center
Sun 09:37:24 AM 41.5183 -72.0631 64° Northeast 414 476 23,000  Level Boston Center
Sun 09:38:24 AM 41.5697 -71.9267 63° Northeast 414 476 23,000 -550 Level Boston Center
Sun 09:39:24 AM 41.6192 -71.7847 65° Northeast 414 476 21,900 -1,750 Descending Boston Center
Sun 09:40:24 AM 41.6703 -71.6425 64° Northeast 414 476 19,500 -2,350 Descending Boston Center
Sun 09:41:24 AM 41.7153 -71.5222 63° Northeast 414 476 17,200 -2,350 Descending Boston Center
Sun 09:42:24 AM 41.7661 -71.3742 65° Northeast 393 452 14,800 -2,050 Descending Boston Center
Sun 09:43:24 AM 41.8108 -71.2703 60° Northeast 367 422 13,100 -1,850 Descending Boston Center
Sun 09:44:24 AM 41.8636 -71.1467 60° Northeast 350 403 11,100 -1,556 Descending Boston Center
Sun 09:44:45 AM 41.8833 -71.1000 60° Northeast 348 400 11,000 -73 Descending KA90
Sun 09:45:46 AM 41.9333 -71.0000 56° Northeast 346 398 11,000 -500 Level KA90
Sun 09:46:45 AM 41.9833 -70.9000 56° Northeast 293 337 10,000 -1,381 Descending KA90
Sun 09:47:39 AM 42.0500 -70.8667 20° North 276 318 8,400 -2,061 Descending KA90
Sun 09:48:24 AM 42.0950 -70.8286 32° Northeast 277 319 6,600 -2,400 Descending Boston Center
Sun 09:49:24 AM 42.1592 -70.7847 27° Northeast 266 306 4,200 -1,800 Descending Boston Center
Sun 09:50:24 AM 42.2219 -70.8056 346° North 233 268 3,000 -600 Descending Boston Center
Sun 09:51:24 AM 42.2497 -70.8525 309° West 163 188 3,000 -450 Level Boston Center
Sun 09:52:24 AM 42.2794 -70.8939 314° West 152 175 2,100 -880 Descending Boston Center
Sun 09:52:39 AM 42.2833 -70.9000 311° West 150 173 1,900 -740 Descending KA90
Sun 09:53:37 AM 42.3167 -70.9333 324° Northwest 125 144 1,200 -650 Descending KA90
Sun 09:54:39 AM 42.3333 -70.9667 304° West 118 136 600 -581 Descending KA90

Login

Don't have an account? Register now (free) for customized features, flight alerts, and more!